Time;durP1;ratioP1;P1;durP2;ratioP2;P2;SDS_P1;SDS_P2;PMS_P1;PMS_P2;Temp;Humidity;BMP_temperature;BMP_pressure;BME280_temperature;BME280_humidity;BME280_pressure;Samples;Min_cycle;Max_cycle;Signal;HPM_P1;HPM_P2
2022/10/02 00:02:11;;;;;;;407.52;371.10;;;;;;;8.31;100.00;97423.53;7394305;19;20013;-63
2022/10/02 00:04:47;;;;;;;432.52;394.83;;;;;;;8.54;100.00;97416.75;7387573;19;20039;-63
2022/10/02 00:07:20;;;;;;;424.83;388.23;;;;;;;8.55;100.00;97413.22;7393532;19;20007;-63
2022/10/02 00:09:54;;;;;;;437.65;398.52;;;;;;;8.64;100.00;97412.59;7386143;19;20024;-59
2022/10/02 00:12:28;;;;;;;455.45;413.92;;;;;;;8.49;100.00;97418.84;7385453;19;20007;-60
2022/10/02 00:15:06;;;;;;;423.50;385.70;;;;;;;8.53;100.00;97418.56;7390852;19;20011;-60
2022/10/02 00:17:46;;;;;;;428.38;389.20;;;;;;;8.60;100.00;97429.47;7383951;19;20025;-59
2022/10/02 00:20:21;;;;;;;417.88;381.38;;;;;;;8.31;100.00;97427.91;7390350;19;20035;-60
2022/10/02 00:22:58;;;;;;;426.33;389.73;;;;;;;8.32;100.00;97424.34;7389702;19;20037;-72
2022/10/02 00:25:36;;;;;;;448.13;410.75;;;;;;;8.46;100.00;97421.66;7389073;19;20006;-59
2022/10/02 00:28:20;;;;;;;438.08;399.95;;;;;;;8.15;100.00;97429.84;7392069;19;20013;-60
2022/10/02 00:31:17;;;;;;;429.55;391.70;;;;;;;8.58;100.00;97431.34;7389932;19;20033;-60
2022/10/02 00:34:02;;;;;;;419.08;380.40;;;;;;;8.37;100.00;97422.28;7385266;19;20335;-60
2022/10/02 00:36:41;;;;;;;418.27;381.60;;;;;;;8.27;100.00;97429.91;7388991;19;20011;-61
2022/10/02 00:39:25;;;;;;;440.65;400.83;;;;;;;8.55;100.00;97432.38;7387972;19;20015;-61
2022/10/02 00:42:36;;;;;;;415.15;378.80;;;;;;;8.60;100.00;97432.94;7388418;19;20379;-60
2022/10/02 00:45:51;;;;;;;432.42;395.52;;;;;;;8.43;100.00;97432.34;7390711;19;20018;-60
2022/10/02 00:48:47;;;;;;;415.80;379.25;;;;;;;8.70;100.00;97434.00;7384657;19;20483;-62
2022/10/02 00:51:28;;;;;;;433.52;394.67;;;;;;;8.67;100.00;97436.81;7386814;19;20050;-62
2022/10/02 00:54:07;;;;;;;429.13;390.52;;;;;;;8.47;100.00;97446.94;7384516;19;20043;-71
2022/10/02 00:56:44;;;;;;;410.88;374.27;;;;;;;8.61;100.00;97446.88;7386085;19;20017;-66
2022/10/02 00:59:27;;;;;;;417.13;380.23;;;;;;;8.59;100.00;97456.63;7384718;19;20078;-74
2022/10/02 01:02:04;;;;;;;431.92;393.92;;;;;;;8.85;100.00;97455.75;7385013;19;20015;-65
2022/10/02 01:04:39;;;;;;;417.13;380.85;;;;;;;8.81;100.00;97454.28;7383479;19;20467;-66
2022/10/02 01:07:13;;;;;;;422.50;386.00;;;;;;;8.56;100.00;97456.84;7384553;19;20011;-67
2022/10/02 01:09:44;;;;;;;434.30;397.15;;;;;;;8.49;100.00;97466.03;7383178;19;20006;-64
2022/10/02 01:12:14;;;;;;;439.63;398.67;;;;;;;8.56;100.00;97467.31;7380061;19;20015;-62
2022/10/02 01:14:44;;;;;;;415.23;378.27;;;;;;;8.74;100.00;97458.25;7383732;19;20037;-67
2022/10/02 01:17:26;;;;;;;424.02;387.00;;;;;;;8.48;100.00;97465.19;7384452;19;20010;-65
2022/10/02 01:20:05;;;;;;;414.13;377.77;;;;;;;8.53;100.00;97464.91;7386181;19;20508;-76
2022/10/02 01:22:41;;;;;;;430.33;393.52;;;;;;;8.84;100.00;97467.19;7382901;19;20031;-60
2022/10/02 01:25:14;;;;;;;429.92;391.40;;;;;;;8.41;100.00;97470.94;7380931;19;20006;-65
2022/10/02 01:27:45;;;;;;;435.15;398.33;;;;;;;8.28;100.00;97472.66;7384512;19;20104;-66
2022/10/02 01:30:21;;;;;;;425.65;388.40;;;;;;;8.47;100.00;97474.00;7384373;19;20038;-70
2022/10/02 01:32:54;;;;;;;426.57;389.10;;;;;;;8.54;100.00;97475.28;7387224;19;20081;-68
2022/10/02 01:35:26;;;;;;;421.50;384.40;;;;;;;8.63;100.00;97473.84;7387930;19;20733;-64
2022/10/02 01:37:57;;;;;;;418.00;379.40;;;;;;;8.47;100.00;97476.63;7379066;19;20010;-69
2022/10/02 01:40:33;;;;;;;417.30;380.77;;;;;;;8.79;100.00;97472.75;7385073;19;20010;-66
2022/10/02 01:43:07;;;;;;;420.20;383.55;;;;;;;8.50;100.00;97480.81;7380010;19;20079;-74
2022/10/02 01:45:53;;;;;;;419.30;382.33;;;;;;;8.59;100.00;97469.75;7384729;19;20736;-69
2022/10/02 01:48:40;;;;;;;432.33;395.17;;;;;;;8.51;100.00;97483.34;7381744;19;20011;-75
2022/10/02 01:51:28;;;;;;;436.38;398.95;;;;;;;8.59;100.00;97481.06;7383988;19;20011;-68
2022/10/02 01:54:11;;;;;;;448.98;408.42;;;;;;;8.54;100.00;97485.78;7384145;19;20014;-61
2022/10/02 01:56:54;;;;;;;441.85;403.40;;;;;;;8.71;100.00;97487.31;7391215;19;20010;-61
2022/10/02 01:59:36;;;;;;;452.48;412.13;;;;;;;8.61;100.00;97488.81;7386729;19;20082;-65
2022/10/02 02:02:16;;;;;;;422.88;386.33;;;;;;;8.71;100.00;97489.91;7384919;19;20014;-68
2022/10/02 02:04:56;;;;;;;430.75;392.25;;;;;;;8.77;100.00;97497.38;7384854;19;20018;-66
2022/10/02 02:07:34;;;;;;;420.55;383.95;;;;;;;8.33;100.00;97492.38;7388069;19;20010;-68
2022/10/02 02:10:15;;;;;;;425.13;386.63;;;;;;;8.63;100.00;97494.81;7381660;19;20014;-64
2022/10/02 02:12:53;;;;;;;437.17;399.48;;;;;;;8.75;100.00;97496.66;7384972;19;20022;-60
2022/10/02 02:15:30;;;;;;;438.38;399.05;;;;;;;8.93;100.00;97500.69;7381150;19;20015;-60
2022/10/02 02:18:06;;;;;;;441.08;403.80;;;;;;;8.79;100.00;97506.84;7383873;19;20010;-66
2022/10/02 02:20:44;;;;;;;435.80;397.15;;;;;;;8.74;100.00;97501.03;7379128;19;20037;-65
2022/10/02 02:23:19;;;;;;;410.85;375.35;;;;;;;8.68;100.00;97506.69;7384152;19;20038;-69
2022/10/02 02:25:54;;;;;;;420.05;383.92;;;;;;;8.65;100.00;97506.03;7385714;19;20019;-69
2022/10/02 02:28:29;;;;;;;418.95;383.00;;;;;;;8.79;100.00;97509.47;7385845;19;20010;-62
2022/10/02 02:31:01;;;;;;;427.58;391.40;;;;;;;8.70;100.00;97510.03;7381564;19;20462;-67
2022/10/02 02:33:39;;;;;;;422.00;384.20;;;;;;;8.38;100.00;97503.44;7381085;19;20027;-62
2022/10/02 02:36:16;;;;;;;440.38;403.85;;;;;;;8.69;100.00;97507.53;7387747;19;20006;-60
2022/10/02 02:38:50;;;;;;;446.17;407.77;;;;;;;8.52;100.00;97520.91;7381848;19;20022;-67
2022/10/02 02:41:27;;;;;;;439.90;402.63;;;;;;;8.44;100.00;97517.94;7388140;19;20010;-62
2022/10/02 02:44:03;;;;;;;431.35;394.55;;;;;;;8.41;100.00;97518.13;7386107;19;20046;-63
2022/10/02 02:47:02;;;;;;;419.27;383.27;;;;;;;8.49;100.00;97527.19;7385728;19;20018;-63
2022/10/02 02:49:44;;;;;;;430.27;391.75;;;;;;;8.18;100.00;97523.94;7376723;19;20010;-63
2022/10/02 02:52:19;;;;;;;421.35;385.15;;;;;;;8.13;100.00;97530.31;7383716;19;20014;-66
2022/10/02 02:54:52;;;;;;;417.48;380.20;;;;;;;8.16;100.00;97529.31;7384817;19;20011;-63
2022/10/02 02:57:30;;;;;;;415.85;380.40;;;;;;;8.17;100.00;97522.28;7383283;19;20031;-64
2022/10/02 03:00:08;;;;;;;425.08;388.90;;;;;;;8.14;100.00;97536.41;7382351;19;20490;-67
2022/10/02 03:02:38;;;;;;;429.52;392.52;;;;;;;8.06;100.00;97530.81;7384642;19;20028;-68
2022/10/02 03:05:14;;;;;;;423.95;387.15;;;;;;;8.13;100.00;97528.63;7381777;19;20022;-67
2022/10/02 03:07:52;;;;;;;433.35;395.10;;;;;;;8.03;100.00;97536.22;7373376;19;20014;-71
2022/10/02 03:10:31;;;;;;;418.05;382.30;;;;;;;8.31;100.00;97541.44;7379366;19;20010;-66
2022/10/02 03:13:18;;;;;;;422.35;384.45;;;;;;;8.22;100.00;97546.44;7374803;19;20011;-68
2022/10/02 03:16:03;;;;;;;419.45;383.77;;;;;;;8.07;100.00;97543.81;7381840;19;20048;-68
2022/10/02 03:18:47;;;;;;;448.48;410.05;;;;;;;8.13;100.00;97559.13;7383079;19;20078;-72
2022/10/02 03:21:26;;;;;;;426.13;389.60;;;;;;;8.05;100.00;97566.63;7392261;19;20025;-70
2022/10/02 03:24:06;;;;;;;439.52;400.23;;;;;;;8.44;100.00;97554.63;7392591;19;20027;-66
2022/10/02 03:26:40;;;;;;;412.08;375.83;;;;;;;8.33;100.00;97559.69;7392863;19;20010;-71
2022/10/02 03:29:25;;;;;;;449.42;410.15;;;;;;;8.15;100.00;97559.03;7394670;19;20006;-66
2022/10/02 03:31:58;;;;;;;415.50;379.02;;;;;;;8.11;100.00;97556.72;7392866;19;20006;-61
2022/10/02 03:34:29;;;;;;;416.17;377.90;;;;;;;8.19;100.00;97559.72;7388170;19;20006;-68
2022/10/02 03:37:00;;;;;;;417.55;381.38;;;;;;;8.23;100.00;97572.50;7391574;19;20047;-64
2022/10/02 03:39:30;;;;;;;427.65;391.05;;;;;;;8.23;100.00;97566.44;7392013;19;20465;-69
2022/10/02 03:41:59;;;;;;;448.10;408.92;;;;;;;8.09;100.00;97568.13;7389633;19;20042;-69
2022/10/02 03:44:29;;;;;;;436.38;399.67;;;;;;;8.33;100.00;97565.75;7391790;19;20014;-68
2022/10/02 03:47:02;;;;;;;433.23;396.08;;;;;;;8.27;100.00;97584.50;7391025;19;20027;-67
2022/10/02 03:49:33;;;;;;;438.70;399.45;;;;;;;8.46;100.00;97564.06;7388434;19;20006;-63
2022/10/02 03:52:05;;;;;;;436.13;398.52;;;;;;;8.36;100.00;97588.31;7393245;19;20014;-67
2022/10/02 03:54:38;;;;;;;427.83;390.88;;;;;;;8.60;100.00;97577.16;7390298;19;20010;-76
2022/10/02 03:57:09;;;;;;;423.73;387.20;;;;;;;8.36;100.00;97586.53;7393000;19;20045;-68
2022/10/02 03:59:47;;;;;;;405.08;370.13;;;;;;;8.58;100.00;97594.75;7392974;19;20018;-60
2022/10/02 04:02:33;;;;;;;439.45;400.75;;;;;;;8.38;100.00;97575.97;7387231;19;20342;-69
2022/10/02 04:05:13;;;;;;;441.60;405.00;;;;;;;8.31;100.00;97588.63;7391275;19;20021;-67
2022/10/02 04:07:49;;;;;;;418.02;380.75;;;;;;;8.32;100.00;97595.53;7391681;19;20014;-71
2022/10/02 04:10:35;;;;;;;436.30;398.90;;;;;;;8.44;100.00;97593.94;7388782;19;20007;-70
2022/10/02 04:13:13;;;;;;;435.02;397.05;;;;;;;8.37;100.00;97603.13;7390022;19;20027;-70
2022/10/02 04:15:56;;;;;;;415.15;379.00;;;;;;;8.65;100.00;97597.81;7391932;19;20026;-68
2022/10/02 04:18:35;;;;;;;397.35;360.50;;;;;;;8.34;100.00;97614.63;7388786;19;20015;-69
2022/10/02 04:21:11;;;;;;;416.27;379.90;;;;;;;8.52;100.00;97604.78;7391238;19;20013;-64
2022/10/02 04:23:49;;;;;;;425.85;386.85;;;;;;;8.53;100.00;97609.94;7387255;19;20355;-67
2022/10/02 04:26:26;;;;;;;439.85;402.17;;;;;;;8.34;100.00;97613.78;7389592;19;20002;-66
2022/10/02 04:29:04;;;;;;;440.38;400.55;;;;;;;8.46;100.00;97613.03;7385886;19;20112;-66
2022/10/02 04:31:34;;;;;;;447.00;406.25;;;;;;;8.60;100.00;97619.09;7389422;19;20010;-67
2022/10/02 04:34:15;;;;;;;439.90;401.30;;;;;;;8.35;100.00;97633.81;7391844;19;20015;-67
2022/10/02 04:37:03;;;;;;;420.52;382.75;;;;;;;8.48;100.00;97627.72;7389482;19;20022;-67
2022/10/02 04:39:55;;;;;;;460.15;417.92;;;;;;;8.58;100.00;97651.56;7384414;19;20038;-71
2022/10/02 04:42:39;;;;;;;426.05;387.63;;;;;;;8.75;100.00;97638.25;7390950;19;20014;-58
2022/10/02 04:45:25;;;;;;;422.00;382.20;;;;;;;8.44;100.00;97651.63;7387794;19;20021;-63
2022/10/02 04:48:25;;;;;;;439.77;401.48;;;;;;;8.49;100.00;97662.66;7388989;19;20010;-67
2022/10/02 04:51:08;;;;;;;398.70;362.33;;;;;;;8.60;100.00;97657.59;7387236;19;20426;-70
2022/10/02 04:53:58;;;;;;;422.42;382.92;;;;;;;8.45;100.00;97666.41;7386966;19;20015;-69
2022/10/02 04:57:02;;;;;;;438.58;400.48;;;;;;;8.41;100.00;97657.03;7390605;19;20014;-68
2022/10/02 04:59:49;;;;;;;445.35;407.75;;;;;;;8.56;100.00;97662.16;7388277;19;20015;-60
2022/10/02 05:02:35;;;;;;;472.67;431.70;;;;;;;8.40;100.00;97671.06;7388297;19;20011;-68
2022/10/02 05:05:33;;;;;;;487.27;445.33;;;;;;;8.57;100.00;97673.50;7390971;19;20018;-62
2022/10/02 05:08:30;;;;;;;512.38;468.30;;;;;;;8.51;100.00;97676.50;7386849;19;20336;-64
2022/10/02 05:11:16;;;;;;;459.42;419.45;;;;;;;8.49;100.00;97683.63;7386444;19;20397;-66
2022/10/02 05:14:03;;;;;;;458.27;416.95;;;;;;;8.69;100.00;97677.97;7386229;19;20015;-65
2022/10/02 05:16:48;;;;;;;444.25;405.85;;;;;;;8.44;100.00;97678.66;7391227;19;20007;-67
2022/10/02 05:19:42;;;;;;;457.15;415.92;;;;;;;8.55;100.00;97691.94;7383286;19;20090;-67
2022/10/02 05:22:28;;;;;;;456.38;417.38;;;;;;;8.45;100.00;97687.38;7386396;19;20031;-71
2022/10/02 05:25:21;;;;;;;457.52;417.55;;;;;;;8.41;100.00;97697.19;7387782;19;20015;-60
2022/10/02 05:28:08;;;;;;;475.15;432.52;;;;;;;8.60;100.00;97695.16;7383624;19;20090;-71
2022/10/02 05:30:51;;;;;;;446.70;407.23;;;;;;;8.56;100.00;97693.63;7384546;19;20014;-75
2022/10/02 05:33:41;;;;;;;442.13;402.27;;;;;;;8.54;100.00;97706.00;7392050;19;20018;-63
2022/10/02 05:36:33;;;;;;;450.95;410.73;;;;;;;8.28;100.00;97706.75;7386574;19;20010;-76
2022/10/02 05:39:08;;;;;;;439.45;399.30;;;;;;;8.30;100.00;97711.88;7387309;19;20013;-69
2022/10/02 05:41:50;;;;;;;455.92;413.88;;;;;;;8.35;100.00;97710.69;7379853;19;20036;-68
2022/10/02 05:44:28;;;;;;;448.08;407.08;;;;;;;8.24;100.00;97720.97;7385741;19;20510;-68
2022/10/02 05:47:04;;;;;;;470.85;427.00;;;;;;;8.62;100.00;97718.63;7383413;19;20365;-68
2022/10/02 05:49:39;;;;;;;452.50;412.73;;;;;;;8.60;100.00;97723.13;7386919;19;20014;-67
2022/10/02 05:52:18;;;;;;;485.27;441.75;;;;;;;8.60;100.00;97712.66;7387256;19;20517;-67
2022/10/02 05:54:58;;;;;;;456.45;415.63;;;;;;;8.55;100.00;97717.34;7389706;19;20497;-67
2022/10/02 05:57:37;;;;;;;463.92;422.70;;;;;;;8.86;100.00;97722.38;7381126;19;20006;-67
2022/10/02 06:00:20;;;;;;;442.83;403.88;;;;;;;8.73;100.00;97724.06;7387039;19;20007;-71
2022/10/02 06:02:58;;;;;;;460.10;419.83;;;;;;;8.75;100.00;97727.44;7385450;19;20015;-68
2022/10/02 06:05:38;;;;;;;457.10;416.15;;;;;;;8.80;100.00;97725.38;7382800;19;20466;-70
2022/10/02 06:08:13;;;;;;;492.70;449.90;;;;;;;8.93;100.00;97732.38;7384885;19;20014;-69
2022/10/02 06:10:49;;;;;;;462.55;420.33;;;;;;;8.89;100.00;97733.50;7381686;19;20066;-68
2022/10/02 06:13:25;;;;;;;;;;;;;;;8.69;100.00;97733.91;7385265;19;20027;-68
2022/10/02 06:16:12;;;;;;;479.95;436.38;;;;;;;8.77;100.00;97741.28;7376137;19;19918;-69
2022/10/02 06:18:48;;;;;;;454.80;414.05;;;;;;;8.78;100.00;97745.63;7383375;19;20719;-67
2022/10/02 06:21:35;;;;;;;470.10;427.33;;;;;;;8.93;100.00;97737.63;7380279;19;20011;-69
2022/10/02 06:24:14;;;;;;;449.75;409.35;;;;;;;9.39;100.00;97746.09;7383008;19;20006;-68
2022/10/02 06:26:59;;;;;;;463.10;421.20;;;;;;;9.01;100.00;97750.28;7381892;19;20018;-69
2022/10/02 06:29:46;;;;;;;463.20;421.98;;;;;;;9.06;100.00;97751.66;7382910;19;20010;-66
2022/10/02 06:32:26;;;;;;;467.77;426.05;;;;;;;9.06;100.00;97758.69;7382365;19;20024;-70
2022/10/02 06:34:59;;;;;;;467.20;425.77;;;;;;;9.00;100.00;97764.34;7382451;19;20151;-75
2022/10/02 06:38:03;;;;;;;466.38;424.52;;;;;;;8.86;100.00;97765.19;7378510;19;21130;-69
2022/10/02 06:40:50;;;;;;;484.30;439.77;;;;;;;9.23;100.00;97763.75;7375512;19;20458;-70
2022/10/02 06:43:47;;;;;;;451.88;411.08;;;;;;;9.28;100.00;97769.53;7381481;19;20020;-69
2022/10/02 06:46:34;;;;;;;462.42;420.85;;;;;;;9.03;100.00;97774.66;7375332;19;20017;-70
2022/10/02 06:49:21;;;;;;;492.45;448.30;;;;;;;9.09;100.00;97769.00;7375208;19;20017;-66
2022/10/02 06:52:21;;;;;;;451.15;410.27;;;;;;;9.19;100.00;97775.38;7378903;19;20018;-68
2022/10/02 06:55:20;;;;;;;469.48;427.13;;;;;;;9.04;100.00;97774.53;7379819;19;20010;-73
2022/10/02 06:58:06;;;;;;;483.92;440.25;;;;;;;8.96;100.00;97783.84;7379546;19;20019;-69
2022/10/02 07:00:47;;;;;;;464.20;422.70;;;;;;;9.17;100.00;97774.59;7383159;19;20646;-76
2022/10/02 07:03:45;;;;;;;456.05;415.58;;;;;;;8.97;100.00;97781.13;7383264;19;20017;-72
2022/10/02 07:06:38;;;;;;;491.38;447.30;;;;;;;9.40;100.00;97781.94;7379241;19;21191;-66
2022/10/02 07:09:40;;;;;;;478.65;436.17;;;;;;;9.25;100.00;97788.13;7387469;19;20018;-69
2022/10/02 07:12:29;;;;;;;465.40;424.67;;;;;;;9.37;100.00;97788.19;7384031;19;20014;-64
2022/10/02 07:15:24;;;;;;;454.83;415.63;;;;;;;9.15;100.00;97785.19;7384154;19;20018;-67
2022/10/02 07:18:07;;;;;;;491.23;447.90;;;;;;;9.06;100.00;97795.44;7375660;19;20044;-69
2022/10/02 07:20:54;;;;;;;462.45;421.73;;;;;;;9.09;100.00;97798.72;7387288;19;20072;-68
2022/10/02 07:23:47;;;;;;;466.05;423.98;;;;;;;9.30;100.00;97794.78;7380210;19;20022;-69
2022/10/02 07:26:38;;;;;;;477.83;435.35;;;;;;;9.56;100.00;97786.13;7384204;19;20013;-76
2022/10/02 07:29:20;;;;;;;449.35;409.30;;;;;;;9.50;100.00;97783.00;7383706;19;20010;-69
2022/10/02 07:32:09;;;;;;;494.73;451.10;;;;;;;9.24;100.00;97789.03;7372161;19;20023;-69
2022/10/02 07:34:46;;;;;;;478.80;436.30;;;;;;;9.78;100.00;97791.69;7372452;19;20458;-67
2022/10/02 07:37:30;;;;;;;472.38;429.10;;;;;;;9.43;100.00;97792.22;7379902;19;20019;-70
2022/10/02 07:40:18;;;;;;;471.20;428.67;;;;;;;9.45;100.00;97790.34;7375161;19;20042;-76
2022/10/02 07:43:04;;;;;;;484.73;440.85;;;;;;;9.42;100.00;97769.53;7369352;19;20007;-69
2022/10/02 07:45:40;;;;;;;479.50;436.65;;;;;;;9.90;100.00;97796.13;7374804;19;20107;-72
2022/10/02 07:48:30;;;;;;;495.40;451.88;;;;;;;10.05;100.00;97781.97;7381212;19;20021;-70
2022/10/02 07:51:45;;;;;;;592.72;536.42;;;;;;;10.17;100.00;97785.56;7377999;19;20360;-66
2022/10/02 07:54:21;;;;;;;587.83;533.08;;;;;;;9.84;100.00;97790.44;7382530;19;20390;-69
2022/10/02 08:48:07;;;;;;;467.75;425.55;;;;;;;9.96;100.00;97792.25;7374471;19;20025;-68
2022/10/02 08:51:07;;;;;;;453.10;412.35;;;;;;;10.03;100.00;97793.53;7385837;19;20015;-70
2022/10/02 08:54:10;;;;;;;442.25;401.98;;;;;;;10.16;100.00;97791.78;7386324;19;20018;-68
2022/10/02 08:57:00;;;;;;;448.98;408.85;;;;;;;10.08;100.00;97788.81;7388542;19;20021;-68
2022/10/02 09:00:01;;;;;;;486.20;442.20;;;;;;;10.02;100.00;97795.31;7382470;19;20006;-69
2022/10/02 09:03:03;;;;;;;558.78;506.42;;;;;;;9.90;100.00;97790.03;7382122;19;20019;-77
2022/10/02 09:06:05;;;;;;;556.58;504.77;;;;;;;9.99;100.00;97784.19;7381087;19;20086;-68
2022/10/02 09:09:15;;;;;;;549.30;498.48;;;;;;;9.95;100.00;97785.31;7385581;19;20082;-70
2022/10/02 09:12:30;;;;;;;556.67;504.77;;;;;;;10.07;100.00;97787.97;7384540;19;20018;-69
2022/10/02 09:15:10;;;;;;;503.60;457.40;;;;;;;10.13;100.00;97786.72;7380506;19;20382;-70
2022/10/02 09:17:51;;;;;;;537.67;489.55;;;;;;;10.34;100.00;97778.25;7380822;19;20529;-68
2022/10/02 09:20:43;;;;;;;495.65;448.25;;;;;;;10.52;100.00;97763.00;7386347;19;20017;-65
2022/10/02 09:23:45;;;;;;;452.10;410.02;;;;;;;10.81;100.00;97773.28;7386967;19;20371;-65
2022/10/02 09:26:44;;;;;;;452.17;410.65;;;;;;;10.75;100.00;97759.66;7382037;19;20010;-66
2022/10/02 09:29:51;;;;;;;453.65;412.77;;;;;;;10.64;100.00;97764.78;7387475;19;20015;-65
2022/10/02 09:33:00;;;;;;;450.42;410.48;;;;;;;10.60;100.00;97764.19;7381716;19;20588;-66
2022/10/02 09:36:08;;;;;;;435.58;394.48;;;;;;;11.35;100.00;97763.28;7384658;19;20014;-65
2022/10/02 09:39:08;;;;;;;441.70;400.52;;;;;;;11.66;100.00;97746.94;7382121;19;20120;-61
2022/10/02 09:42:33;;;;;;;458.13;417.80;;;;;;;11.07;100.00;97766.19;7379905;19;20015;-65
2022/10/02 09:45:31;;;;;;;448.00;409.27;;;;;;;11.03;100.00;97754.19;7380595;19;20014;-66
2022/10/02 09:48:50;;;;;;;448.58;409.17;;;;;;;10.96;100.00;97750.28;7384445;19;20034;-69
2022/10/02 09:51:59;;;;;;;478.60;436.60;;;;;;;10.70;100.00;97749.50;7384930;19;20026;-67
2022/10/02 09:55:08;;;;;;;487.60;444.33;;;;;;;10.80;100.00;97750.50;7385508;19;20128;-63
2022/10/02 09:58:09;;;;;;;486.65;442.85;;;;;;;10.68;100.00;97754.00;7385172;19;20014;-66
2022/10/02 10:01:03;;;;;;;466.05;422.30;;;;;;;11.02;100.00;97747.25;7385351;19;20765;-66
2022/10/02 10:04:26;;;;;;;486.77;442.92;;;;;;;10.81;100.00;97736.44;7380340;19;20367;-73
2022/10/02 10:07:24;;;;;;;454.08;411.13;;;;;;;10.74;100.00;97740.44;7381454;19;20014;-66
2022/10/02 10:10:28;;;;;;;456.30;414.55;;;;;;;10.97;100.00;97738.81;7383320;19;20075;-73
2022/10/02 10:13:55;;;;;;;511.25;466.05;;;;;;;11.55;100.00;97740.75;7383669;19;20018;-66
2022/10/02 10:17:07;;;;;;;526.45;478.52;;;;;;;11.34;100.00;97749.25;7379389;19;20032;-66
2022/10/02 10:20:05;;;;;;;504.48;458.90;;;;;;;10.99;100.00;97735.13;7378796;19;20023;-65
2022/10/02 10:23:04;;;;;;;481.05;437.52;;;;;;;10.75;100.00;97744.75;7382287;19;20018;-67
2022/10/02 10:26:06;;;;;;;482.48;439.70;;;;;;;10.67;100.00;97744.41;7384982;19;20010;-67
2022/10/02 10:29:02;;;;;;;458.45;417.25;;;;;;;10.33;100.00;97744.19;7385045;19;20022;-64
2022/10/02 10:32:04;;;;;;;478.58;434.05;;;;;;;10.76;100.00;97745.59;7381648;19;20055;-67
2022/10/02 10:35:06;;;;;;;464.90;421.40;;;;;;;10.99;100.00;97742.19;7375395;19;20019;-73
2022/10/02 10:40:52;;;;;;;468.40;425.63;;;;;;;11.34;100.00;97727.34;7383955;19;20326;-65
2022/10/02 10:43:51;;;;;;;460.25;416.98;;;;;;;11.21;100.00;97731.81;7380005;19;20151;-65
2022/10/02 10:46:49;;;;;;;473.90;429.15;;;;;;;11.87;100.00;97719.00;7378945;19;20053;-66
2022/10/02 10:50:03;;;;;;;455.23;412.33;;;;;;;12.07;100.00;97714.88;7382175;19;20363;-66
2022/10/02 10:52:57;;;;;;;466.40;423.08;;;;;;;12.16;100.00;97716.84;7382091;19;20011;-67
2022/10/02 10:55:51;;;;;;;458.38;416.10;;;;;;;11.78;100.00;97718.84;7384946;19;20339;-64
2022/10/02 10:58:31;;;;;;;459.92;416.63;;;;;;;12.13;100.00;97711.81;7382301;19;20078;-61
2022/10/02 11:01:14;;;;;;;468.77;426.30;;;;;;;12.19;100.00;97701.63;7381317;19;20413;-65
2022/10/02 11:04:03;;;;;;;465.58;422.67;;;;;;;12.55;100.00;97688.25;7379316;19;20749;-65
2022/10/02 11:07:06;;;;;;;450.80;409.13;;;;;;;11.96;100.00;97705.16;7381088;19;20038;-62
2022/10/02 11:10:04;;;;;;;465.40;422.15;;;;;;;11.93;100.00;97688.75;7381335;19;20014;-66
2022/10/02 11:13:05;;;;;;;461.73;419.48;;;;;;;12.25;100.00;97701.16;7387385;19;20011;-66
2022/10/02 11:16:12;;;;;;;466.38;422.80;;;;;;;11.84;100.00;97697.28;7385297;19;20010;-67
2022/10/02 11:19:08;;;;;;;451.98;409.90;;;;;;;12.02;100.00;97704.72;7384489;19;20864;-65
2022/10/02 11:21:54;;;;;;;464.77;422.85;;;;;;;11.99;100.00;97697.03;7379864;19;20025;-67
2022/10/02 11:24:44;;;;;;;465.23;423.80;;;;;;;11.98;100.00;97703.25;7387487;19;20028;-69
2022/10/02 11:27:37;;;;;;;474.52;430.90;;;;;;;12.10;100.00;97701.47;7378863;19;20014;-69
2022/10/02 11:30:25;;;;;;;472.02;429.00;;;;;;;12.49;100.00;97698.47;7375030;19;20018;-70
2022/10/02 11:33:25;;;;;;;476.50;434.52;;;;;;;12.10;100.00;97696.22;7376122;19;20014;-68
2022/10/02 11:36:19;;;;;;;475.63;433.75;;;;;;;11.91;100.00;97688.81;7384224;19;20007;-65
2022/10/02 11:39:08;;;;;;;505.63;461.13;;;;;;;11.66;100.00;97686.31;7377569;19;20014;-66
2022/10/02 11:42:12;;;;;;;458.95;417.45;;;;;;;11.53;100.00;97689.97;7387928;19;20053;-70
2022/10/02 11:45:01;;;;;;;457.67;415.27;;;;;;;11.57;100.00;97694.91;7388620;19;20427;-68
2022/10/02 11:48:02;;;;;;;454.50;412.13;;;;;;;10.29;100.00;97733.00;7388974;19;20010;-67
2022/10/02 11:51:16;;;;;;;462.50;420.10;;;;;;;9.88;100.00;97713.91;7386702;19;20013;-66
2022/10/02 11:54:20;;;;;;;485.52;440.63;;;;;;;10.03;100.00;97704.19;7385381;19;20014;-67
2022/10/02 11:57:13;;;;;;;472.30;428.98;;;;;;;10.43;100.00;97692.66;7387369;19;20022;-71
2022/10/02 12:00:12;;;;;;;467.27;425.67;;;;;;;10.62;100.00;97679.91;7389675;19;20351;-66
2022/10/02 12:02:49;;;;;;;472.67;429.73;;;;;;;10.76;100.00;97682.44;7389365;19;20007;-67
2022/10/02 12:05:33;;;;;;;463.85;421.13;;;;;;;11.12;100.00;97678.03;7387007;19;20022;-66
2022/10/02 12:08:13;;;;;;;483.92;440.65;;;;;;;10.99;100.00;97671.13;7388696;19;20006;-66
2022/10/02 12:10:55;;;;;;;448.95;407.85;;;;;;;11.38;100.00;97660.31;7388074;19;20011;-75
2022/10/02 12:13:58;;;;;;;440.50;399.67;;;;;;;11.18;100.00;97674.09;7387331;19;20408;-65
2022/10/02 12:16:39;;;;;;;425.55;385.70;;;;;;;11.31;100.00;97677.50;7389472;19;21207;-66
2022/10/02 12:19:28;;;;;;;425.27;385.25;;;;;;;11.57;100.00;97680.91;7389503;19;20026;-66
2022/10/02 12:28:00;;;;;;;435.35;394.60;;;;;;;11.59;100.00;97661.38;7390778;19;20070;-66
2022/10/02 12:30:39;;;;;;;438.67;396.55;;;;;;;11.64;100.00;97677.69;7390618;19;20074;-64
2022/10/02 12:33:26;;;;;;;426.88;385.70;;;;;;;12.01;100.00;97660.00;7387648;19;20039;-73
2022/10/02 12:36:19;;;;;;;448.33;405.55;;;;;;;12.78;100.00;97658.25;7392399;19;20018;-64
2022/10/02 12:39:08;;;;;;;463.00;419.80;;;;;;;12.86;100.00;97652.41;7391604;19;20958;-64
2022/10/02 12:42:08;;;;;;;446.33;405.48;;;;;;;12.64;100.00;97645.34;7392447;19;20014;-66
2022/10/02 12:45:08;;;;;;;444.30;403.42;;;;;;;12.46;100.00;97652.03;7391224;19;20086;-66
2022/10/02 12:47:57;;;;;;;440.55;401.52;;;;;;;12.22;100.00;97653.09;7391963;19;20573;-65
2022/10/02 12:50:54;;;;;;;457.63;414.75;;;;;;;12.01;100.00;97647.63;7384919;19;20019;-66
2022/10/02 12:53:59;;;;;;;449.75;408.38;;;;;;;11.95;100.00;97649.91;7388974;19;20038;-64
2022/10/02 12:56:57;;;;;;;462.25;419.98;;;;;;;11.90;100.00;97621.22;7392051;19;20466;-67
2022/10/02 12:59:35;;;;;;;434.73;394.85;;;;;;;11.67;100.00;97645.00;7392028;19;20014;-66
2022/10/02 13:02:28;;;;;;;436.50;396.27;;;;;;;11.62;100.00;97640.09;7387506;19;20010;-79
2022/10/02 13:05:39;;;;;;;459.30;418.10;;;;;;;11.56;100.00;97653.69;7390264;19;20420;-67
2022/10/02 13:08:34;;;;;;;443.70;401.80;;;;;;;11.11;100.00;97655.28;7391048;19;20034;-67
2022/10/02 13:11:17;;;;;;;447.35;406.90;;;;;;;11.02;100.00;97652.47;7390420;19;20002;-66
2022/10/02 13:14:10;;;;;;;443.60;404.05;;;;;;;10.50;100.00;97630.75;7385958;19;20516;-72
2022/10/02 13:17:06;;;;;;;451.00;410.35;;;;;;;10.93;100.00;97645.22;7392120;19;20006;-57
2022/10/02 13:19:46;;;;;;;460.50;418.08;;;;;;;11.32;100.00;97630.00;7390679;19;20056;-66
2022/10/02 13:22:26;;;;;;;460.50;418.23;;;;;;;11.33;100.00;97623.81;7390179;19;20014;-65
2022/10/02 13:25:20;;;;;;;440.35;400.65;;;;;;;10.92;100.00;97625.94;7389235;19;20014;-68
2022/10/02 13:28:05;;;;;;;456.30;413.80;;;;;;;11.05;100.00;97618.00;7384214;19;20014;-55